Terminal Aerodrome Forecast
Issued by NWS Springfield, MO

Home | Current Version | Previous Version | Text Only | Print | Product List | Glossary On
Versions: 1 2 3 4 5 6 7 8 9 10 11 12 13 14 15 16 17 18 19 20 21 22 23
740
FTUS43 KSGF 142337
TAFSGF
TAF
KSGF 142337Z 1500/1524 18009KT P6SM BKN090
     FM150700 21011KT P6SM -SN OVC080
     FM150900 25010KT 2SM -SN BR OVC030
     FM151100 30010KT 1SM -SN BR OVC015
     FM151500 33013KT P6SM -SN OVC025
     FM151700 33013G20KT P6SM OVC040=

USA.gov is the U.S. government's official web portal to all federal, state and local government web resources and services.